sensor_id;sensor_type;location;lat;lon;timestamp;P1;durP1;ratioP1;P2;durP2;ratioP2
51614;SDS011;37695;52.960;6.188;2023-07-28T00:00:14;21.23;;;10.20;;
51614;SDS011;37695;52.960;6.188;2023-07-28T00:02:40;20.13;;;10.07;;
51614;SDS011;37695;52.960;6.188;2023-07-28T00:05:06;26.08;;;11.45;;
51614;SDS011;37695;52.960;6.188;2023-07-28T00:07:31;17.35;;;11.40;;
51614;SDS011;37695;52.960;6.188;2023-07-28T00:09:59;17.67;;;11.13;;
51614;SDS011;37695;52.960;6.188;2023-07-28T00:12:24;18.15;;;11.60;;
51614;SDS011;37695;52.960;6.188;2023-07-28T00:14:50;30.58;;;12.10;;
51614;SDS011;37695;52.960;6.188;2023-07-28T00:17:15;22.25;;;12.00;;
51614;SDS011;37695;52.960;6.188;2023-07-28T00:19:41;19.25;;;10.80;;
51614;SDS011;37695;52.960;6.188;2023-07-28T00:22:06;19.02;;;12.52;;
51614;SDS011;37695;52.960;6.188;2023-07-28T00:24:32;20.58;;;11.95;;
51614;SDS011;37695;52.960;6.188;2023-07-28T00:26:58;16.30;;;12.05;;
51614;SDS011;37695;52.960;6.188;2023-07-28T00:29:23;21.33;;;12.48;;
51614;SDS011;37695;52.960;6.188;2023-07-28T00:31:49;20.15;;;12.40;;
51614;SDS011;37695;52.960;6.188;2023-07-28T00:34:14;19.75;;;12.25;;
51614;SDS011;37695;52.960;6.188;2023-07-28T00:36:40;21.25;;;13.88;;
51614;SDS011;37695;52.960;6.188;2023-07-28T00:39:06;18.45;;;13.27;;
51614;SDS011;37695;52.960;6.188;2023-07-28T00:41:31;23.45;;;14.15;;
51614;SDS011;37695;52.960;6.188;2023-07-28T00:43:57;25.27;;;14.13;;
51614;SDS011;37695;52.960;6.188;2023-07-28T00:46:22;22.65;;;12.95;;
51614;SDS011;37695;52.960;6.188;2023-07-28T00:48:48;22.15;;;12.95;;
51614;SDS011;37695;52.960;6.188;2023-07-28T00:51:14;22.60;;;13.15;;
51614;SDS011;37695;52.960;6.188;2023-07-28T00:53:40;20.02;;;12.93;;
51614;SDS011;37695;52.960;6.188;2023-07-28T00:56:06;33.03;;;12.20;;
51614;SDS011;37695;52.960;6.188;2023-07-28T00:58:32;19.02;;;12.30;;
51614;SDS011;37695;52.960;6.188;2023-07-28T01:00:58;18.15;;;11.20;;
51614;SDS011;37695;52.960;6.188;2023-07-28T01:03:24;20.85;;;10.52;;
51614;SDS011;37695;52.960;6.188;2023-07-28T01:11:14;18.83;;;11.07;;
51614;SDS011;37695;52.960;6.188;2023-07-28T01:13:40;22.70;;;11.13;;
51614;SDS011;37695;52.960;6.188;2023-07-28T01:16:06;23.15;;;11.82;;
51614;SDS011;37695;52.960;6.188;2023-07-28T01:18:32;19.88;;;10.98;;
51614;SDS011;37695;52.960;6.188;2023-07-28T01:20:58;21.80;;;11.30;;
51614;SDS011;37695;52.960;6.188;2023-07-28T01:23:40;18.60;;;10.65;;
51614;SDS011;37695;52.960;6.188;2023-07-28T01:26:11;21.08;;;10.88;;
51614;SDS011;37695;52.960;6.188;2023-07-28T01:28:40;26.38;;;12.32;;
51614;SDS011;37695;52.960;6.188;2023-07-28T01:31:07;23.17;;;9.85;;
51614;SDS011;37695;52.960;6.188;2023-07-28T01:33:33;23.20;;;10.77;;
51614;SDS011;37695;52.960;6.188;2023-07-28T01:35:59;20.05;;;10.13;;
51614;SDS011;37695;52.960;6.188;2023-07-28T01:38:25;22.23;;;10.02;;
51614;SDS011;37695;52.960;6.188;2023-07-28T01:40:54;20.50;;;9.75;;
51614;SDS011;37695;52.960;6.188;2023-07-28T01:43:19;24.25;;;9.27;;
51614;SDS011;37695;52.960;6.188;2023-07-28T01:45:45;21.65;;;9.32;;
51614;SDS011;37695;52.960;6.188;2023-07-28T01:48:10;17.50;;;9.32;;
51614;SDS011;37695;52.960;6.188;2023-07-28T01:50:36;18.33;;;9.23;;
51614;SDS011;37695;52.960;6.188;2023-07-28T01:53:03;23.75;;;9.35;;
51614;SDS011;37695;52.960;6.188;2023-07-28T01:55:29;18.10;;;9.07;;
51614;SDS011;37695;52.960;6.188;2023-07-28T01:57:56;19.77;;;8.07;;
51614;SDS011;37695;52.960;6.188;2023-07-28T02:00:23;22.13;;;9.43;;
51614;SDS011;37695;52.960;6.188;2023-07-28T02:02:49;19.30;;;8.50;;
51614;SDS011;37695;52.960;6.188;2023-07-28T02:05:15;22.80;;;8.55;;
51614;SDS011;37695;52.960;6.188;2023-07-28T02:07:41;16.27;;;7.60;;
51614;SDS011;37695;52.960;6.188;2023-07-28T02:10:07;24.13;;;7.88;;
51614;SDS011;37695;52.960;6.188;2023-07-28T02:12:33;17.30;;;7.65;;
51614;SDS011;37695;52.960;6.188;2023-07-28T02:14:59;17.55;;;7.72;;
51614;SDS011;37695;52.960;6.188;2023-07-28T02:17:25;17.13;;;7.15;;
51614;SDS011;37695;52.960;6.188;2023-07-28T02:19:50;18.40;;;7.35;;
51614;SDS011;37695;52.960;6.188;2023-07-28T02:22:16;20.55;;;7.68;;
51614;SDS011;37695;52.960;6.188;2023-07-28T02:24:41;17.05;;;6.88;;
51614;SDS011;37695;52.960;6.188;2023-07-28T02:27:07;16.30;;;6.72;;
51614;SDS011;37695;52.960;6.188;2023-07-28T02:29:33;17.73;;;7.18;;
51614;SDS011;37695;52.960;6.188;2023-07-28T02:31:58;17.90;;;7.00;;
51614;SDS011;37695;52.960;6.188;2023-07-28T02:34:24;20.90;;;7.22;;
51614;SDS011;37695;52.960;6.188;2023-07-28T02:36:49;18.30;;;7.05;;
51614;SDS011;37695;52.960;6.188;2023-07-28T02:39:15;14.02;;;6.30;;
51614;SDS011;37695;52.960;6.188;2023-07-28T02:41:40;14.73;;;7.03;;
51614;SDS011;37695;52.960;6.188;2023-07-28T02:44:07;20.67;;;6.15;;
51614;SDS011;37695;52.960;6.188;2023-07-28T02:46:32;19.40;;;7.10;;
51614;SDS011;37695;52.960;6.188;2023-07-28T02:48:58;15.60;;;7.20;;
51614;SDS011;37695;52.960;6.188;2023-07-28T02:51:23;22.20;;;7.05;;
51614;SDS011;37695;52.960;6.188;2023-07-28T02:53:49;16.38;;;6.32;;
51614;SDS011;37695;52.960;6.188;2023-07-28T02:56:14;17.20;;;6.60;;
51614;SDS011;37695;52.960;6.188;2023-07-28T02:58:40;18.90;;;6.80;;
51614;SDS011;37695;52.960;6.188;2023-07-28T03:01:05;15.10;;;6.28;;
51614;SDS011;37695;52.960;6.188;2023-07-28T03:03:31;16.30;;;6.22;;
51614;SDS011;37695;52.960;6.188;2023-07-28T03:05:56;15.23;;;6.78;;
51614;SDS011;37695;52.960;6.188;2023-07-28T03:08:22;16.98;;;6.75;;
51614;SDS011;37695;52.960;6.188;2023-07-28T03:10:47;18.02;;;7.07;;
51614;SDS011;37695;52.960;6.188;2023-07-28T03:13:13;18.42;;;6.97;;
51614;SDS011;37695;52.960;6.188;2023-07-28T03:15:38;12.40;;;6.13;;
51614;SDS011;37695;52.960;6.188;2023-07-28T03:18:04;15.68;;;6.97;;
51614;SDS011;37695;52.960;6.188;2023-07-28T03:20:30;12.52;;;6.30;;
51614;SDS011;37695;52.960;6.188;2023-07-28T03:22:55;18.00;;;6.93;;
51614;SDS011;37695;52.960;6.188;2023-07-28T03:25:21;17.90;;;7.30;;
51614;SDS011;37695;52.960;6.188;2023-07-28T03:27:46;13.52;;;6.25;;
51614;SDS011;37695;52.960;6.188;2023-07-28T03:30:12;18.95;;;6.78;;
51614;SDS011;37695;52.960;6.188;2023-07-28T03:32:38;19.42;;;7.03;;
51614;SDS011;37695;52.960;6.188;2023-07-28T03:35:04;13.02;;;6.32;;
51614;SDS011;37695;52.960;6.188;2023-07-28T03:37:31;18.13;;;7.20;;
51614;SDS011;37695;52.960;6.188;2023-07-28T03:39:57;17.33;;;7.20;;
51614;SDS011;37695;52.960;6.188;2023-07-28T03:42:22;10.70;;;6.30;;
51614;SDS011;37695;52.960;6.188;2023-07-28T03:44:48;16.75;;;7.10;;
51614;SDS011;37695;52.960;6.188;2023-07-28T03:47:14;16.02;;;6.93;;
51614;SDS011;37695;52.960;6.188;2023-07-28T03:49:39;15.32;;;7.13;;
51614;SDS011;37695;52.960;6.188;2023-07-28T03:52:05;16.80;;;7.80;;
51614;SDS011;37695;52.960;6.188;2023-07-28T03:54:31;19.52;;;8.48;;
51614;SDS011;37695;52.960;6.188;2023-07-28T03:56:56;16.27;;;7.57;;
51614;SDS011;37695;52.960;6.188;2023-07-28T03:59:22;18.63;;;8.20;;
51614;SDS011;37695;52.960;6.188;2023-07-28T04:01:47;17.70;;;8.07;;
51614;SDS011;37695;52.960;6.188;2023-07-28T04:04:13;17.92;;;7.95;;
51614;SDS011;37695;52.960;6.188;2023-07-28T04:06:46;16.02;;;7.72;;
51614;SDS011;37695;52.960;6.188;2023-07-28T04:09:15;19.10;;;8.20;;
51614;SDS011;37695;52.960;6.188;2023-07-28T04:11:42;17.95;;;7.75;;
51614;SDS011;37695;52.960;6.188;2023-07-28T04:14:08;16.08;;;7.28;;
51614;SDS011;37695;52.960;6.188;2023-07-28T04:16:33;16.08;;;7.40;;
51614;SDS011;37695;52.960;6.188;2023-07-28T04:18:59;16.20;;;7.65;;
51614;SDS011;37695;52.960;6.188;2023-07-28T04:21:25;15.68;;;7.38;;
51614;SDS011;37695;52.960;6.188;2023-07-28T04:23:50;16.50;;;7.57;;
51614;SDS011;37695;52.960;6.188;2023-07-28T04:26:16;18.48;;;6.97;;
51614;SDS011;37695;52.960;6.188;2023-07-28T04:28:43;14.02;;;7.30;;
51614;SDS011;37695;52.960;6.188;2023-07-28T04:31:08;14.98;;;7.07;;
51614;SDS011;37695;52.960;6.188;2023-07-28T04:33:34;18.65;;;7.55;;
51614;SDS011;37695;52.960;6.188;2023-07-28T04:36:02;20.35;;;8.38;;
51614;SDS011;37695;52.960;6.188;2023-07-28T04:38:27;15.52;;;6.85;;
51614;SDS011;37695;52.960;6.188;2023-07-28T04:40:53;17.05;;;7.05;;
51614;SDS011;37695;52.960;6.188;2023-07-28T04:43:19;20.42;;;7.70;;
51614;SDS011;37695;52.960;6.188;2023-07-28T04:45:45;19.88;;;7.53;;
51614;SDS011;37695;52.960;6.188;2023-07-28T04:48:10;15.70;;;8.20;;
51614;SDS011;37695;52.960;6.188;2023-07-28T04:50:36;19.05;;;7.45;;
51614;SDS011;37695;52.960;6.188;2023-07-28T04:53:02;19.42;;;7.57;;
51614;SDS011;37695;52.960;6.188;2023-07-28T04:55:27;16.67;;;7.65;;
51614;SDS011;37695;52.960;6.188;2023-07-28T04:57:53;16.70;;;8.18;;
51614;SDS011;37695;52.960;6.188;2023-07-28T05:00:20;18.33;;;7.32;;
51614;SDS011;37695;52.960;6.188;2023-07-28T05:02:45;16.40;;;7.18;;
51614;SDS011;37695;52.960;6.188;2023-07-28T05:05:11;14.60;;;6.60;;
51614;SDS011;37695;52.960;6.188;2023-07-28T05:07:36;18.23;;;6.80;;
51614;SDS011;37695;52.960;6.188;2023-07-28T05:10:02;15.05;;;6.78;;
51614;SDS011;37695;52.960;6.188;2023-07-28T05:12:27;15.90;;;7.32;;
51614;SDS011;37695;52.960;6.188;2023-07-28T05:14:53;14.65;;;6.60;;
51614;SDS011;37695;52.960;6.188;2023-07-28T05:17:18;15.23;;;6.57;;
51614;SDS011;37695;52.960;6.188;2023-07-28T05:19:44;17.45;;;6.38;;
51614;SDS011;37695;52.960;6.188;2023-07-28T05:22:10;13.02;;;6.18;;
51614;SDS011;37695;52.960;6.188;2023-07-28T05:24:35;12.75;;;6.18;;
51614;SDS011;37695;52.960;6.188;2023-07-28T05:27:01;19.33;;;7.45;;
51614;SDS011;37695;52.960;6.188;2023-07-28T05:29:26;14.43;;;7.15;;
51614;SDS011;37695;52.960;6.188;2023-07-28T05:31:52;16.42;;;6.20;;
51614;SDS011;37695;52.960;6.188;2023-07-28T05:34:17;15.52;;;6.47;;
51614;SDS011;37695;52.960;6.188;2023-07-28T05:36:43;15.82;;;5.78;;
51614;SDS011;37695;52.960;6.188;2023-07-28T05:39:09;12.88;;;6.25;;
51614;SDS011;37695;52.960;6.188;2023-07-28T05:41:36;14.35;;;5.88;;
51614;SDS011;37695;52.960;6.188;2023-07-28T05:44:02;15.82;;;6.00;;
51614;SDS011;37695;52.960;6.188;2023-07-28T05:46:28;12.05;;;6.30;;
51614;SDS011;37695;52.960;6.188;2023-07-28T05:48:54;17.05;;;6.63;;
51614;SDS011;37695;52.960;6.188;2023-07-28T05:51:21;12.52;;;5.70;;
51614;SDS011;37695;52.960;6.188;2023-07-28T05:53:47;14.73;;;6.13;;
51614;SDS011;37695;52.960;6.188;2023-07-28T05:56:12;12.15;;;5.97;;
51614;SDS011;37695;52.960;6.188;2023-07-28T05:58:38;20.17;;;6.63;;
51614;SDS011;37695;52.960;6.188;2023-07-28T06:01:04;12.43;;;5.82;;
51614;SDS011;37695;52.960;6.188;2023-07-28T06:03:29;18.98;;;6.70;;
51614;SDS011;37695;52.960;6.188;2023-07-28T06:05:55;12.02;;;6.35;;
51614;SDS011;37695;52.960;6.188;2023-07-28T06:08:21;15.60;;;6.28;;
51614;SDS011;37695;52.960;6.188;2023-07-28T06:10:47;14.65;;;6.00;;
51614;SDS011;37695;52.960;6.188;2023-07-28T06:13:12;15.25;;;6.45;;
51614;SDS011;37695;52.960;6.188;2023-07-28T06:15:38;16.13;;;6.40;;
51614;SDS011;37695;52.960;6.188;2023-07-28T06:18:04;13.20;;;6.40;;
51614;SDS011;37695;52.960;6.188;2023-07-28T06:20:30;14.60;;;6.70;;
51614;SDS011;37695;52.960;6.188;2023-07-28T06:22:56;13.00;;;6.50;;
51614;SDS011;37695;52.960;6.188;2023-07-28T06:25:21;13.43;;;6.55;;
51614;SDS011;37695;52.960;6.188;2023-07-28T06:27:47;12.93;;;6.70;;
51614;SDS011;37695;52.960;6.188;2023-07-28T06:30:12;15.70;;;7.68;;
51614;SDS011;37695;52.960;6.188;2023-07-28T06:32:38;14.45;;;7.63;;
51614;SDS011;37695;52.960;6.188;2023-07-28T06:35:04;10.13;;;6.95;;
51614;SDS011;37695;52.960;6.188;2023-07-28T06:37:32;12.32;;;5.85;;
51614;SDS011;37695;52.960;6.188;2023-07-28T06:39:57;14.50;;;7.05;;
51614;SDS011;37695;52.960;6.188;2023-07-28T06:42:23;13.93;;;7.85;;
51614;SDS011;37695;52.960;6.188;2023-07-28T06:44:52;11.48;;;6.70;;
51614;SDS011;37695;52.960;6.188;2023-07-28T06:47:17;12.00;;;6.60;;
51614;SDS011;37695;52.960;6.188;2023-07-28T06:49:43;12.90;;;6.45;;
51614;SDS011;37695;52.960;6.188;2023-07-28T06:52:09;12.13;;;6.68;;
51614;SDS011;37695;52.960;6.188;2023-07-28T06:54:36;10.57;;;6.10;;
51614;SDS011;37695;52.960;6.188;2023-07-28T06:57:01;13.45;;;6.18;;
51614;SDS011;37695;52.960;6.188;2023-07-28T06:59:27;10.60;;;5.68;;
51614;SDS011;37695;52.960;6.188;2023-07-28T07:01:53;13.02;;;6.75;;
51614;SDS011;37695;52.960;6.188;2023-07-28T07:04:18;12.10;;;6.57;;
51614;SDS011;37695;52.960;6.188;2023-07-28T07:06:44;11.90;;;6.35;;
51614;SDS011;37695;52.960;6.188;2023-07-28T07:09:10;9.27;;;5.50;;
51614;SDS011;37695;52.960;6.188;2023-07-28T07:11:39;11.23;;;6.20;;
51614;SDS011;37695;52.960;6.188;2023-07-28T07:14:05;10.27;;;5.63;;
51614;SDS011;37695;52.960;6.188;2023-07-28T07:16:30;11.52;;;5.90;;
51614;SDS011;37695;52.960;6.188;2023-07-28T07:18:56;11.80;;;6.00;;
51614;SDS011;37695;52.960;6.188;2023-07-28T07:21:21;13.27;;;5.97;;
51614;SDS011;37695;52.960;6.188;2023-07-28T07:23:47;9.57;;;6.53;;
51614;SDS011;37695;52.960;6.188;2023-07-28T07:26:12;11.13;;;6.32;;
51614;SDS011;37695;52.960;6.188;2023-07-28T07:28:38;10.90;;;5.85;;
51614;SDS011;37695;52.960;6.188;2023-07-28T07:31:03;10.75;;;5.28;;
51614;SDS011;37695;52.960;6.188;2023-07-28T07:33:29;8.55;;;5.40;;
51614;SDS011;37695;52.960;6.188;2023-07-28T07:35:54;8.38;;;5.00;;
51614;SDS011;37695;52.960;6.188;2023-07-28T07:38:20;9.75;;;4.82;;
51614;SDS011;37695;52.960;6.188;2023-07-28T07:40:46;10.05;;;5.32;;
51614;SDS011;37695;52.960;6.188;2023-07-28T07:43:13;9.57;;;5.38;;
51614;SDS011;37695;52.960;6.188;2023-07-28T07:45:44;11.48;;;5.55;;
51614;SDS011;37695;52.960;6.188;2023-07-28T07:48:11;10.88;;;5.80;;
51614;SDS011;37695;52.960;6.188;2023-07-28T07:50:37;9.45;;;6.00;;
51614;SDS011;37695;52.960;6.188;2023-07-28T07:53:03;12.43;;;6.07;;
51614;SDS011;37695;52.960;6.188;2023-07-28T07:55:29;8.55;;;5.63;;
51614;SDS011;37695;52.960;6.188;2023-07-28T07:57:56;7.57;;;4.65;;
51614;SDS011;37695;52.960;6.188;2023-07-28T08:00:22;12.65;;;5.15;;
51614;SDS011;37695;52.960;6.188;2023-07-28T08:02:48;9.00;;;4.97;;
51614;SDS011;37695;52.960;6.188;2023-07-28T08:05:14;9.43;;;4.97;;
51614;SDS011;37695;52.960;6.188;2023-07-28T08:07:40;8.15;;;4.53;;
51614;SDS011;37695;52.960;6.188;2023-07-28T08:10:06;8.15;;;4.63;;
51614;SDS011;37695;52.960;6.188;2023-07-28T08:12:32;8.23;;;4.10;;
51614;SDS011;37695;52.960;6.188;2023-07-28T08:14:57;11.02;;;4.57;;
51614;SDS011;37695;52.960;6.188;2023-07-28T08:17:23;11.43;;;4.88;;
51614;SDS011;37695;52.960;6.188;2023-07-28T08:19:49;10.25;;;4.65;;
51614;SDS011;37695;52.960;6.188;2023-07-28T08:22:15;10.00;;;4.35;;
51614;SDS011;37695;52.960;6.188;2023-07-28T08:24:40;9.32;;;4.75;;
51614;SDS011;37695;52.960;6.188;2023-07-28T08:27:06;8.90;;;4.60;;
51614;SDS011;37695;52.960;6.188;2023-07-28T08:29:31;8.35;;;4.22;;
51614;SDS011;37695;52.960;6.188;2023-07-28T08:31:57;9.65;;;4.18;;
51614;SDS011;37695;52.960;6.188;2023-07-28T08:34:23;8.65;;;4.57;;
51614;SDS011;37695;52.960;6.188;2023-07-28T08:36:49;9.93;;;4.75;;
51614;SDS011;37695;52.960;6.188;2023-07-28T08:39:15;11.07;;;4.63;;
51614;SDS011;37695;52.960;6.188;2023-07-28T08:41:42;10.73;;;5.15;;
51614;SDS011;37695;52.960;6.188;2023-07-28T08:44:08;8.38;;;4.25;;
51614;SDS011;37695;52.960;6.188;2023-07-28T08:46:33;8.18;;;4.15;;
51614;SDS011;37695;52.960;6.188;2023-07-28T08:49:00;7.07;;;4.70;;
51614;SDS011;37695;52.960;6.188;2023-07-28T08:51:26;8.10;;;4.35;;
51614;SDS011;37695;52.960;6.188;2023-07-28T08:53:51;7.50;;;4.22;;
51614;SDS011;37695;52.960;6.188;2023-07-28T08:56:17;9.38;;;4.65;;
51614;SDS011;37695;52.960;6.188;2023-07-28T08:58:44;8.90;;;4.68;;
51614;SDS011;37695;52.960;6.188;2023-07-28T09:01:10;8.55;;;4.28;;
51614;SDS011;37695;52.960;6.188;2023-07-28T09:03:38;8.27;;;4.43;;
51614;SDS011;37695;52.960;6.188;2023-07-28T09:06:06;5.75;;;4.07;;
51614;SDS011;37695;52.960;6.188;2023-07-28T09:08:35;6.38;;;4.30;;
51614;SDS011;37695;52.960;6.188;2023-07-28T09:11:02;7.63;;;3.92;;
51614;SDS011;37695;52.960;6.188;2023-07-28T09:13:37;7.97;;;4.47;;
51614;SDS011;37695;52.960;6.188;2023-07-28T09:16:16;9.18;;;4.82;;
51614;SDS011;37695;52.960;6.188;2023-07-28T09:18:43;10.93;;;4.93;;
51614;SDS011;37695;52.960;6.188;2023-07-28T09:21:15;8.38;;;4.85;;
51614;SDS011;37695;52.960;6.188;2023-07-28T09:23:42;8.50;;;4.75;;
51614;SDS011;37695;52.960;6.188;2023-07-28T09:26:08;10.13;;;5.15;;
51614;SDS011;37695;52.960;6.188;2023-07-28T09:28:38;8.40;;;5.38;;
51614;SDS011;37695;52.960;6.188;2023-07-28T09:31:04;12.52;;;5.18;;
51614;SDS011;37695;52.960;6.188;2023-07-28T09:33:31;7.03;;;4.60;;
51614;SDS011;37695;52.960;6.188;2023-07-28T09:35:57;6.85;;;4.53;;
51614;SDS011;37695;52.960;6.188;2023-07-28T09:38:36;6.85;;;4.60;;
51614;SDS011;37695;52.960;6.188;2023-07-28T09:41:07;10.55;;;4.93;;
51614;SDS011;37695;52.960;6.188;2023-07-28T09:43:35;7.43;;;4.72;;
51614;SDS011;37695;52.960;6.188;2023-07-28T09:46:06;8.45;;;4.93;;
51614;SDS011;37695;52.960;6.188;2023-07-28T09:48:33;9.93;;;4.97;;
51614;SDS011;37695;52.960;6.188;2023-07-28T09:51:01;8.75;;;4.82;;
51614;SDS011;37695;52.960;6.188;2023-07-28T09:53:34;9.35;;;4.47;;
51614;SDS011;37695;52.960;6.188;2023-07-28T09:56:03;10.63;;;5.20;;
51614;SDS011;37695;52.960;6.188;2023-07-28T09:58:29;9.15;;;4.38;;
51614;SDS011;37695;52.960;6.188;2023-07-28T10:01:01;10.02;;;5.10;;
51614;SDS011;37695;52.960;6.188;2023-07-28T10:03:30;6.47;;;3.85;;
51614;SDS011;37695;52.960;6.188;2023-07-28T10:05:57;7.60;;;4.68;;
51614;SDS011;37695;52.960;6.188;2023-07-28T10:08:22;7.03;;;4.63;;
51614;SDS011;37695;52.960;6.188;2023-07-28T10:10:49;7.03;;;4.15;;
51614;SDS011;37695;52.960;6.188;2023-07-28T10:13:21;6.43;;;3.90;;
51614;SDS011;37695;52.960;6.188;2023-07-28T10:15:47;7.15;;;3.92;;
51614;SDS011;37695;52.960;6.188;2023-07-28T10:18:13;6.00;;;3.53;;
51614;SDS011;37695;52.960;6.188;2023-07-28T10:20:39;7.13;;;4.30;;
51614;SDS011;37695;52.960;6.188;2023-07-28T10:23:21;6.75;;;4.10;;
51614;SDS011;37695;52.960;6.188;2023-07-28T10:25:47;6.50;;;3.90;;
51614;SDS011;37695;52.960;6.188;2023-07-28T10:28:38;7.85;;;4.13;;
51614;SDS011;37695;52.960;6.188;2023-07-28T10:31:08;8.82;;;4.00;;
51614;SDS011;37695;52.960;6.188;2023-07-28T10:33:45;7.88;;;4.22;;
51614;SDS011;37695;52.960;6.188;2023-07-28T10:38:40;6.78;;;4.20;;
51614;SDS011;37695;52.960;6.188;2023-07-28T10:41:10;8.77;;;4.35;;
51614;SDS011;37695;52.960;6.188;2023-07-28T10:43:40;7.95;;;4.40;;
51614;SDS011;37695;52.960;6.188;2023-07-28T10:46:07;8.48;;;4.20;;
51614;SDS011;37695;52.960;6.188;2023-07-28T10:48:41;6.97;;;3.97;;
51614;SDS011;37695;52.960;6.188;2023-07-28T10:51:08;7.47;;;4.30;;
51614;SDS011;37695;52.960;6.188;2023-07-28T10:53:34;7.70;;;4.13;;
51614;SDS011;37695;52.960;6.188;2023-07-28T10:56:01;9.02;;;4.68;;
51614;SDS011;37695;52.960;6.188;2023-07-28T10:58:28;9.77;;;5.25;;
51614;SDS011;37695;52.960;6.188;2023-07-28T11:00:54;6.97;;;4.50;;
51614;SDS011;37695;52.960;6.188;2023-07-28T11:03:20;11.13;;;5.93;;
51614;SDS011;37695;52.960;6.188;2023-07-28T11:05:48;9.75;;;5.82;;
51614;SDS011;37695;52.960;6.188;2023-07-28T11:08:15;8.02;;;5.63;;
51614;SDS011;37695;52.960;6.188;2023-07-28T11:10:41;8.95;;;5.20;;
51614;SDS011;37695;52.960;6.188;2023-07-28T11:13:07;8.80;;;5.30;;
51614;SDS011;37695;52.960;6.188;2023-07-28T11:15:32;8.30;;;5.90;;
51614;SDS011;37695;52.960;6.188;2023-07-28T11:17:58;14.13;;;6.40;;
51614;SDS011;37695;52.960;6.188;2023-07-28T11:20:26;8.93;;;6.18;;
51614;SDS011;37695;52.960;6.188;2023-07-28T11:22:56;8.07;;;5.53;;
51614;SDS011;37695;52.960;6.188;2023-07-28T11:25:26;13.75;;;6.65;;
51614;SDS011;37695;52.960;6.188;2023-07-28T11:27:53;8.95;;;6.45;;
51614;SDS011;37695;52.960;6.188;2023-07-28T11:30:20;12.05;;;7.10;;
51614;SDS011;37695;52.960;6.188;2023-07-28T11:32:47;10.32;;;6.93;;
51614;SDS011;37695;52.960;6.188;2023-07-28T11:35:15;8.90;;;5.80;;
51614;SDS011;37695;52.960;6.188;2023-07-28T11:37:42;7.75;;;4.90;;
51614;SDS011;37695;52.960;6.188;2023-07-28T11:40:09;11.95;;;5.55;;
51614;SDS011;37695;52.960;6.188;2023-07-28T11:42:45;9.00;;;5.15;;
51614;SDS011;37695;52.960;6.188;2023-07-28T11:45:12;10.35;;;5.20;;
51614;SDS011;37695;52.960;6.188;2023-07-28T11:47:39;10.25;;;5.95;;
51614;SDS011;37695;52.960;6.188;2023-07-28T11:50:04;9.02;;;5.72;;
51614;SDS011;37695;52.960;6.188;2023-07-28T11:52:31;10.10;;;6.38;;
51614;SDS011;37695;52.960;6.188;2023-07-28T11:55:01;9.73;;;5.85;;
51614;SDS011;37695;52.960;6.188;2023-07-28T11:57:30;10.48;;;6.38;;
51614;SDS011;37695;52.960;6.188;2023-07-28T11:59:59;9.43;;;5.65;;
51614;SDS011;37695;52.960;6.188;2023-07-28T12:02:28;9.27;;;6.28;;
51614;SDS011;37695;52.960;6.188;2023-07-28T12:04:55;9.95;;;6.20;;
51614;SDS011;37695;52.960;6.188;2023-07-28T12:07:30;9.20;;;6.13;;
51614;SDS011;37695;52.960;6.188;2023-07-28T12:09:56;10.43;;;6.43;;
51614;SDS011;37695;52.960;6.188;2023-07-28T12:12:27;6.95;;;6.00;;
51614;SDS011;37695;52.960;6.188;2023-07-28T12:14:54;10.35;;;5.78;;
51614;SDS011;37695;52.960;6.188;2023-07-28T12:17:22;9.73;;;5.50;;
51614;SDS011;37695;52.960;6.188;2023-07-28T12:19:56;8.57;;;4.80;;
51614;SDS011;37695;52.960;6.188;2023-07-28T12:22:25;8.32;;;4.55;;
51614;SDS011;37695;52.960;6.188;2023-07-28T12:24:52;6.13;;;4.18;;
51614;SDS011;37695;52.960;6.188;2023-07-28T12:27:18;6.78;;;4.50;;
51614;SDS011;37695;52.960;6.188;2023-07-28T12:29:45;8.13;;;4.90;;
51614;SDS011;37695;52.960;6.188;2023-07-28T12:32:12;5.82;;;4.80;;
51614;SDS011;37695;52.960;6.188;2023-07-28T12:34:38;12.73;;;6.50;;
51614;SDS011;37695;52.960;6.188;2023-07-28T12:37:05;6.60;;;4.85;;
51614;SDS011;37695;52.960;6.188;2023-07-28T12:39:31;9.50;;;5.75;;
51614;SDS011;37695;52.960;6.188;2023-07-28T12:41:56;7.97;;;6.05;;
51614;SDS011;37695;52.960;6.188;2023-07-28T12:44:22;9.50;;;6.75;;
51614;SDS011;37695;52.960;6.188;2023-07-28T12:46:47;12.10;;;6.47;;
51614;SDS011;37695;52.960;6.188;2023-07-28T12:49:13;9.32;;;4.85;;
51614;SDS011;37695;52.960;6.188;2023-07-28T12:51:39;13.02;;;4.55;;
51614;SDS011;37695;52.960;6.188;2023-07-28T12:54:05;6.75;;;4.45;;
51614;SDS011;37695;52.960;6.188;2023-07-28T12:56:30;6.63;;;4.28;;
51614;SDS011;37695;52.960;6.188;2023-07-28T12:58:57;7.75;;;5.00;;
51614;SDS011;37695;52.960;6.188;2023-07-28T13:01:23;9.98;;;5.55;;
51614;SDS011;37695;52.960;6.188;2023-07-28T13:03:48;13.43;;;7.15;;
51614;SDS011;37695;52.960;6.188;2023-07-28T13:06:14;11.65;;;6.57;;
51614;SDS011;37695;52.960;6.188;2023-07-28T13:08:39;8.43;;;6.47;;
51614;SDS011;37695;52.960;6.188;2023-07-28T13:11:05;10.50;;;7.30;;
51614;SDS011;37695;52.960;6.188;2023-07-28T13:13:30;12.80;;;6.53;;
51614;SDS011;37695;52.960;6.188;2023-07-28T13:15:57;10.63;;;7.53;;
51614;SDS011;37695;52.960;6.188;2023-07-28T13:18:23;10.80;;;6.50;;
51614;SDS011;37695;52.960;6.188;2023-07-28T13:20:50;8.38;;;7.03;;
51614;SDS011;37695;52.960;6.188;2023-07-28T13:23:16;8.35;;;6.60;;
51614;SDS011;37695;52.960;6.188;2023-07-28T13:25:42;10.57;;;7.00;;
51614;SDS011;37695;52.960;6.188;2023-07-28T13:28:07;8.02;;;6.32;;
51614;SDS011;37695;52.960;6.188;2023-07-28T13:30:33;7.72;;;5.00;;
51614;SDS011;37695;52.960;6.188;2023-07-28T13:32:58;7.93;;;5.40;;
51614;SDS011;37695;52.960;6.188;2023-07-28T13:35:24;9.18;;;6.40;;
51614;SDS011;37695;52.960;6.188;2023-07-28T13:37:50;7.38;;;5.43;;
51614;SDS011;37695;52.960;6.188;2023-07-28T13:40:15;7.50;;;5.90;;
51614;SDS011;37695;52.960;6.188;2023-07-28T13:42:41;8.18;;;6.38;;
51614;SDS011;37695;52.960;6.188;2023-07-28T13:45:06;9.30;;;7.00;;
51614;SDS011;37695;52.960;6.188;2023-07-28T13:47:33;8.23;;;6.05;;
51614;SDS011;37695;52.960;6.188;2023-07-28T13:49:59;10.13;;;7.38;;
51614;SDS011;37695;52.960;6.188;2023-07-28T13:52:25;9.68;;;7.78;;
51614;SDS011;37695;52.960;6.188;2023-07-28T13:54:50;8.82;;;7.05;;
51614;SDS011;37695;52.960;6.188;2023-07-28T13:57:16;8.38;;;7.13;;
51614;SDS011;37695;52.960;6.188;2023-07-28T13:59:41;9.65;;;7.85;;
51614;SDS011;37695;52.960;6.188;2023-07-28T14:02:07;10.02;;;7.32;;
51614;SDS011;37695;52.960;6.188;2023-07-28T14:04:33;10.80;;;8.63;;
51614;SDS011;37695;52.960;6.188;2023-07-28T14:06:59;10.07;;;8.32;;
51614;SDS011;37695;52.960;6.188;2023-07-28T14:09:24;11.95;;;8.95;;
51614;SDS011;37695;52.960;6.188;2023-07-28T14:11:50;9.98;;;7.07;;
51614;SDS011;37695;52.960;6.188;2023-07-28T14:14:15;9.90;;;8.13;;
51614;SDS011;37695;52.960;6.188;2023-07-28T14:16:41;8.98;;;7.65;;
51614;SDS011;37695;52.960;6.188;2023-07-28T14:19:07;9.60;;;7.53;;
51614;SDS011;37695;52.960;6.188;2023-07-28T14:21:33;9.45;;;6.50;;
51614;SDS011;37695;52.960;6.188;2023-07-28T14:23:59;9.63;;;6.07;;
51614;SDS011;37695;52.960;6.188;2023-07-28T14:26:24;8.45;;;6.47;;
51614;SDS011;37695;52.960;6.188;2023-07-28T14:28:50;11.48;;;7.22;;
51614;SDS011;37695;52.960;6.188;2023-07-28T14:31:16;7.78;;;6.15;;
51614;SDS011;37695;52.960;6.188;2023-07-28T14:33:42;10.05;;;7.30;;
51614;SDS011;37695;52.960;6.188;2023-07-28T14:36:08;8.07;;;6.25;;
51614;SDS011;37695;52.960;6.188;2023-07-28T14:38:34;9.95;;;7.35;;
51614;SDS011;37695;52.960;6.188;2023-07-28T14:40:59;9.45;;;7.20;;